Terminal Aerodrome Forecast
Issued by NWS

Home | Current Version | Previous Version | Text Only | Print | Product List | Glossary On
Versions: 1 2 3 4 5 6 7 8 9 10 11 12 13 14 15 16 17 18 19
000
FTUS46 KSTO 311700 RRA
TAFSAC
TAF
KSAC 311743Z 3118/0118 33010KT P6SM SKC
     FM312100 34012G20KT P6SM SKC
     FM010100 VRB04KT P6SM SKC
     FM011500 13002KT 6SM BR SCT250=

USA.gov is the U.S. government's official web portal to all federal, state and local government web resources and services.